createdAt,value
2018-09-12T00:00:57.648Z,5.20
2018-09-12T00:03:26.129Z,4.40
2018-09-12T00:05:54.543Z,4.00
2018-09-12T00:08:22.860Z,5.53
2018-09-12T00:10:51.240Z,5.40
2018-09-12T00:13:19.540Z,4.00
2018-09-12T00:15:47.847Z,4.77
2018-09-12T00:18:16.405Z,4.67
2018-09-12T00:20:45.093Z,4.07
2018-09-12T00:23:13.397Z,9.27
2018-09-12T00:25:41.718Z,5.40
2018-09-12T00:28:10.389Z,5.40
2018-09-12T00:30:38.692Z,6.20
2018-09-12T00:33:07.002Z,5.40
2018-09-12T00:35:35.300Z,6.43
2018-09-12T00:38:03.657Z,5.17
2018-09-12T00:40:32.005Z,25.80
2018-09-12T00:43:00.636Z,10.67
2018-09-12T00:45:28.974Z,5.30
2018-09-12T00:47:57.594Z,5.63
2018-09-12T00:50:25.916Z,4.10
2018-09-12T00:52:54.599Z,6.10
2018-09-12T00:55:22.908Z,13.53
2018-09-12T00:57:51.239Z,8.87
2018-09-12T01:00:19.562Z,5.50
2018-09-12T01:02:47.876Z,4.70
2018-09-12T01:05:16.220Z,6.83
2018-09-12T01:07:44.516Z,5.90
2018-09-12T01:10:12.824Z,6.60
2018-09-12T01:12:41.181Z,5.23
2018-09-12T01:15:09.481Z,6.93
2018-09-12T01:17:37.813Z,4.43
2018-09-12T01:20:07.100Z,5.43
2018-09-12T01:22:35.393Z,5.67
2018-09-12T01:25:03.716Z,8.23
2018-09-12T01:27:32.090Z,9.03
2018-09-12T01:30:00.685Z,6.87
2018-09-12T01:32:28.992Z,5.37
2018-09-12T01:34:57.410Z,5.63
2018-09-12T01:37:25.761Z,3.93
2018-09-12T01:39:54.168Z,5.43
2018-09-12T01:42:22.501Z,5.67
2018-09-12T01:44:50.828Z,4.10
2018-09-12T01:47:19.135Z,4.63
2018-09-12T01:49:47.449Z,4.73
2018-09-12T01:52:15.773Z,5.00
2018-09-12T01:54:44.068Z,4.87
2018-09-12T01:57:12.425Z,5.23
2018-09-12T01:59:40.712Z,4.83
2018-09-12T02:02:09.286Z,3.93
2018-09-12T02:04:38.000Z,5.40
2018-09-12T02:07:06.505Z,4.13
2018-09-12T02:09:34.809Z,4.90
2018-09-12T02:12:03.239Z,4.93
2018-09-12T02:14:31.515Z,7.67
2018-09-12T02:16:59.970Z,4.97
2018-09-12T02:19:28.320Z,9.23
2018-09-12T02:21:56.793Z,4.53
2018-09-12T02:24:25.293Z,6.13
2018-09-12T02:26:54.282Z,5.10
2018-09-12T02:29:22.632Z,5.43
2018-09-12T02:31:50.948Z,4.97
2018-09-12T02:34:19.256Z,4.53
2018-09-12T02:36:47.552Z,5.97
2018-09-12T02:39:16.125Z,4.60
2018-09-12T02:41:44.479Z,4.27
2018-09-12T02:44:12.834Z,4.97
2018-09-12T02:46:41.200Z,5.87
2018-09-12T02:49:10.197Z,4.57
2018-09-12T02:51:38.564Z,4.53
2018-09-12T02:54:07.005Z,6.87
2018-09-12T02:56:35.621Z,4.73
2018-09-12T02:59:04.097Z,4.80
2018-09-12T03:01:32.473Z,4.27
2018-09-12T03:04:01.116Z,7.13
2018-09-12T03:06:29.475Z,5.97
2018-09-12T03:08:58.660Z,5.53
2018-09-12T03:11:26.985Z,5.83
2018-09-12T03:13:55.276Z,4.83
2018-09-12T03:16:23.561Z,4.63
2018-09-12T03:18:51.929Z,6.40
2018-09-12T03:21:20.242Z,5.37
2018-09-12T03:23:48.558Z,6.13
2018-09-12T03:26:16.843Z,5.10
2018-09-12T03:28:45.140Z,10.07
2018-09-12T03:31:13.420Z,4.87
2018-09-12T03:33:41.736Z,9.47
2018-09-12T03:36:10.181Z,5.37
2018-09-12T03:38:38.565Z,5.77
2018-09-12T03:41:07.680Z,12.37
2018-09-12T03:43:36.077Z,8.27
2018-09-12T03:46:04.619Z,4.87
2018-09-12T03:48:33.019Z,6.43
2018-09-12T03:51:01.373Z,6.60
2018-09-12T03:53:29.688Z,7.73
2018-09-12T03:55:58.164Z,6.07
2018-09-12T03:58:26.488Z,5.70
2018-09-12T04:00:54.840Z,6.90
2018-09-12T04:03:23.340Z,4.30
2018-09-12T04:05:51.730Z,5.37
2018-09-12T04:08:20.052Z,8.73
2018-09-12T04:10:48.373Z,6.43
2018-09-12T04:13:16.666Z,17.93
2018-09-12T04:15:45.058Z,6.37
2018-09-12T04:18:13.384Z,9.70
2018-09-12T04:20:41.692Z,5.40
2018-09-12T04:23:10.128Z,7.07
2018-09-12T04:25:38.435Z,6.90
2018-09-12T04:28:06.924Z,8.10
2018-09-12T04:30:35.273Z,6.20
2018-09-12T04:33:03.780Z,6.20
2018-09-12T04:35:32.110Z,8.63
2018-09-12T04:38:00.670Z,8.47
2018-09-12T04:40:29.042Z,6.63
2018-09-12T04:42:57.401Z,6.30
2018-09-12T04:45:25.665Z,7.63
2018-09-12T04:47:54.001Z,5.83
2018-09-12T04:50:22.313Z,8.03
2018-09-12T04:52:50.758Z,8.33
2018-09-12T04:55:19.165Z,9.40
2018-09-12T04:57:47.593Z,7.47
2018-09-12T05:00:15.933Z,8.23
2018-09-12T05:02:44.330Z,8.20
2018-09-12T05:05:13.008Z,7.13
2018-09-12T05:07:41.336Z,8.10
2018-09-12T05:10:09.793Z,7.10
2018-09-12T05:12:38.052Z,9.17
2018-09-12T05:15:07.075Z,11.43
2018-09-12T05:17:35.444Z,8.80
2018-09-12T05:20:03.962Z,9.47
2018-09-12T05:22:32.280Z,9.40
2018-09-12T05:25:00.736Z,5.03
2018-09-12T05:27:29.036Z,8.73
2018-09-12T05:29:57.385Z,7.47
2018-09-12T05:32:25.717Z,8.37
2018-09-12T05:34:54.372Z,7.50
2018-09-12T05:37:22.683Z,7.47
2018-09-12T05:39:51.256Z,37.60
2018-09-12T05:42:19.584Z,5.53
2018-09-12T05:44:47.954Z,5.80
2018-09-12T05:47:16.425Z,10.03
2018-09-12T05:49:44.852Z,10.20
2018-09-12T05:52:13.545Z,9.20
2018-09-12T05:54:41.884Z,6.97
2018-09-12T05:57:11.008Z,19.30
2018-09-12T05:59:39.348Z,7.47
2018-09-12T06:02:07.838Z,6.80
2018-09-12T06:04:36.229Z,8.03
2018-09-12T06:07:05.133Z,6.63
2018-09-12T06:09:33.421Z,5.63
2018-09-12T06:12:01.720Z,9.23
2018-09-12T06:14:30.101Z,6.47
2018-09-12T06:16:58.471Z,10.80
2018-09-12T06:19:26.821Z,8.33
2018-09-12T06:21:55.132Z,6.57
2018-09-12T06:24:24.008Z,8.90
2018-09-12T06:26:52.305Z,5.55
2018-09-12T06:29:20.588Z,6.15
2018-09-12T06:31:48.977Z,11.70
2018-09-12T06:34:17.288Z,8.53
2018-09-12T06:36:45.593Z,5.65
2018-09-12T06:39:14.237Z,6.47
2018-09-12T06:41:42.569Z,7.58
2018-09-12T06:44:11.021Z,7.05
2018-09-12T06:46:39.376Z,8.60
2018-09-12T06:49:08.048Z,8.85
2018-09-12T06:51:36.492Z,10.93
2018-09-12T06:54:05.289Z,6.62
2018-09-12T06:56:33.611Z,6.78
2018-09-12T06:59:01.992Z,7.67
2018-09-12T07:01:30.576Z,7.87
2018-09-12T07:03:58.875Z,9.98
2018-09-12T07:06:27.223Z,7.78
2018-09-12T07:08:55.660Z,7.67
2018-09-12T07:11:23.961Z,6.20
2018-09-12T07:13:52.272Z,7.62
2018-09-12T07:16:21.554Z,10.08
2018-09-12T07:18:49.872Z,7.03
2018-09-12T07:21:18.201Z,6.35
2018-09-12T07:23:46.597Z,8.50
2018-09-12T07:26:14.993Z,9.38
2018-09-12T07:28:43.308Z,7.70
2018-09-12T07:31:11.669Z,12.23
2018-09-12T07:33:39.993Z,9.70
2018-09-12T07:36:09.206Z,8.93
2018-09-12T07:38:37.588Z,9.55
2018-09-12T07:41:06.140Z,6.67
2018-09-12T07:43:34.468Z,7.22
2018-09-12T07:46:02.833Z,7.10
2018-09-12T07:48:31.245Z,7.50
2018-09-12T07:50:59.708Z,6.12
2018-09-12T07:53:28.148Z,4.95
2018-09-12T07:55:56.548Z,5.55
2018-09-12T07:58:24.897Z,6.03
2018-09-12T08:00:53.209Z,4.08
2018-09-12T08:03:21.492Z,7.80
2018-09-12T08:05:49.801Z,5.80
2018-09-12T08:08:18.364Z,5.85
2018-09-12T08:10:47.363Z,7.53
2018-09-12T08:13:15.685Z,3.52
2018-09-12T08:15:44.044Z,5.65
2018-09-12T08:18:12.382Z,5.95
2018-09-12T08:20:40.704Z,5.87
2018-09-12T08:23:09.065Z,7.78
2018-09-12T08:25:37.376Z,5.08
2018-09-12T08:28:05.704Z,6.67
2018-09-12T08:30:34.106Z,6.22
2018-09-12T08:33:02.645Z,5.55
2018-09-12T08:35:30.967Z,5.83
2018-09-12T08:37:59.360Z,7.12
2018-09-12T08:40:27.660Z,6.67
2018-09-12T08:42:55.982Z,5.20
2018-09-12T08:45:24.309Z,5.22
2018-09-12T08:47:52.718Z,7.00
2018-09-12T08:50:23.496Z,5.97
2018-09-12T08:52:52.639Z,4.97
2018-09-12T08:55:20.878Z,6.78
2018-09-12T08:57:49.187Z,3.90
2018-09-12T09:00:17.534Z,4.55
2018-09-12T09:02:45.825Z,3.90
2018-09-12T09:05:14.462Z,6.80
2018-09-12T09:07:42.741Z,5.17
2018-09-12T09:10:11.041Z,5.53
2018-09-12T09:12:39.373Z,5.90
2018-09-12T09:15:07.689Z,5.00
2018-09-12T09:17:35.974Z,3.72
2018-09-12T09:20:04.316Z,5.97
2018-09-12T09:22:32.594Z,2.98
2018-09-12T09:25:00.890Z,3.47
2018-09-12T09:27:29.208Z,5.92
2018-09-12T09:29:57.668Z,3.45
2018-09-12T09:32:25.964Z,3.10
2018-09-12T09:34:54.353Z,8.28
2018-09-12T09:37:22.568Z,3.00
2018-09-12T09:39:50.853Z,6.55
2018-09-12T09:42:19.177Z,6.10
2018-09-12T09:44:47.453Z,6.00
2018-09-12T09:47:15.736Z,6.83
2018-09-12T09:49:44.040Z,3.50
2018-09-12T09:52:12.334Z,6.42
2018-09-12T09:54:40.657Z,3.35
2018-09-12T09:57:08.931Z,4.53
2018-09-12T09:59:38.013Z,4.97
2018-09-12T10:02:11.972Z,5.35
2018-09-12T10:04:45.512Z,5.40
2018-09-12T10:07:19.335Z,7.92
2018-09-12T10:09:47.733Z,3.20
2018-09-12T10:12:16.201Z,5.20
2018-09-12T10:14:44.836Z,4.25
2018-09-12T10:17:13.132Z,4.15
2018-09-12T10:19:41.522Z,3.83
2018-09-12T10:22:09.924Z,5.10
2018-09-12T10:24:38.233Z,3.80
2018-09-12T10:27:06.551Z,6.58
2018-09-12T10:29:34.908Z,4.70
2018-09-12T10:32:03.189Z,5.25
2018-09-12T10:34:32.586Z,5.55
2018-09-12T10:37:01.044Z,4.40
2018-09-12T10:39:29.428Z,4.33
2018-09-12T10:41:57.728Z,3.92
2018-09-12T10:44:26.041Z,4.85
2018-09-12T10:46:54.365Z,5.92
2018-09-12T10:49:22.809Z,6.25
2018-09-12T10:51:51.104Z,2.90
2018-09-12T10:54:19.468Z,3.92
2018-09-12T10:56:47.744Z,4.37
2018-09-12T10:59:16.113Z,3.27
2018-09-12T11:01:44.662Z,5.83
2018-09-12T11:04:13.051Z,8.93
2018-09-12T11:06:41.432Z,5.08
2018-09-12T11:09:11.830Z,8.20
2018-09-12T11:11:40.129Z,5.08
2018-09-12T11:14:08.802Z,3.77
2018-09-12T11:16:37.200Z,5.55
2018-09-12T11:19:05.584Z,3.45
2018-09-12T11:21:33.945Z,4.10
2018-09-12T11:24:02.905Z,4.65
2018-09-12T11:26:31.280Z,4.80
2018-09-12T11:28:59.692Z,3.62
2018-09-12T11:31:28.351Z,7.55
2018-09-12T11:33:56.763Z,4.00
2018-09-12T11:36:25.089Z,4.33
2018-09-12T11:38:53.370Z,4.70
2018-09-12T11:41:21.648Z,4.08
2018-09-12T11:43:50.574Z,4.87
2018-09-12T11:46:19.085Z,4.35
2018-09-12T11:48:47.357Z,6.90
2018-09-12T11:51:15.789Z,3.10
2018-09-12T11:53:44.056Z,3.30
2018-09-12T11:56:12.337Z,3.15
2018-09-12T11:58:40.657Z,3.50
2018-09-12T12:01:08.961Z,5.72
2018-09-12T12:03:37.250Z,6.40
2018-09-12T12:06:05.569Z,5.08
2018-09-12T12:08:33.860Z,7.28
2018-09-12T12:11:02.196Z,6.50
2018-09-12T12:13:30.502Z,4.87
2018-09-12T12:15:58.796Z,10.63
2018-09-12T12:18:27.100Z,4.10
2018-09-12T12:20:55.428Z,3.17
2018-09-12T12:23:23.720Z,3.83
2018-09-12T12:25:52.005Z,3.33
2018-09-12T12:28:20.312Z,4.75
2018-09-12T12:30:48.577Z,7.78
2018-09-12T12:33:16.862Z,5.87
2018-09-12T12:35:45.157Z,3.85
2018-09-12T12:38:13.469Z,4.60
2018-09-12T12:40:41.753Z,4.05
2018-09-12T12:43:10.069Z,6.90
2018-09-12T12:45:38.337Z,4.03
2018-09-12T12:48:06.618Z,4.45
2018-09-12T12:50:34.929Z,4.30
2018-09-12T12:53:03.225Z,3.55
2018-09-12T12:55:31.520Z,4.47
2018-09-12T12:57:59.804Z,7.22
2018-09-12T13:00:28.088Z,5.75
2018-09-12T13:02:56.368Z,6.28
2018-09-12T13:05:24.688Z,7.55
2018-09-12T13:07:52.969Z,5.92
2018-09-12T13:10:21.306Z,4.17
2018-09-12T13:12:49.604Z,4.05
2018-09-12T13:15:17.909Z,5.20
2018-09-12T13:17:46.185Z,4.55
2018-09-12T13:20:14.484Z,4.12
2018-09-12T13:22:42.761Z,5.72
2018-09-12T13:25:11.040Z,3.75
2018-09-12T13:27:39.397Z,3.65
2018-09-12T13:30:07.644Z,4.78
2018-09-12T13:32:36.143Z,6.47
2018-09-12T13:35:04.848Z,5.87
2018-09-12T13:37:33.120Z,5.03
2018-09-12T13:40:01.420Z,3.37
2018-09-12T13:42:29.732Z,6.97
2018-09-12T13:44:58.015Z,5.97
2018-09-12T13:47:26.299Z,4.62
2018-09-12T13:49:54.610Z,5.17
2018-09-12T13:52:22.908Z,5.40
2018-09-12T13:54:51.184Z,4.37
2018-09-12T13:57:19.487Z,3.65
2018-09-12T13:59:47.773Z,5.58
2018-09-12T14:02:16.055Z,5.15
2018-09-12T14:04:44.356Z,3.40
2018-09-12T14:07:12.636Z,5.28
2018-09-12T14:09:40.961Z,5.00
2018-09-12T14:12:09.289Z,3.85
2018-09-12T14:14:37.584Z,4.70
2018-09-12T14:17:05.936Z,3.87
2018-09-12T14:19:34.338Z,7.00
2018-09-12T14:22:02.556Z,4.53
2018-09-12T14:24:30.849Z,5.58
2018-09-12T14:26:59.174Z,5.25
2018-09-12T14:29:27.469Z,3.80
2018-09-12T14:31:55.804Z,4.42
2018-09-12T14:34:24.153Z,4.33
2018-09-12T14:36:52.562Z,4.33
2018-09-12T14:39:20.861Z,2.58
2018-09-12T14:41:49.187Z,2.58
2018-09-12T14:44:17.490Z,3.30
2018-09-12T14:46:45.774Z,4.78
2018-09-12T14:49:14.071Z,4.20
2018-09-12T14:51:42.360Z,5.67
2018-09-12T14:54:10.645Z,3.35
2018-09-12T14:56:38.965Z,4.62
2018-09-12T14:59:07.244Z,4.00
2018-09-12T15:01:35.653Z,5.53
2018-09-12T15:04:03.968Z,3.62
2018-09-12T15:06:32.256Z,4.35
2018-09-12T15:09:01.001Z,4.20
2018-09-12T15:11:29.312Z,3.80
2018-09-12T15:13:57.602Z,4.00
2018-09-12T15:16:25.888Z,7.58
2018-09-12T15:18:54.181Z,3.37
2018-09-12T15:21:22.487Z,5.58
2018-09-12T15:23:50.761Z,5.00
2018-09-12T15:26:19.082Z,4.03
2018-09-12T15:28:47.361Z,3.58
2018-09-12T15:31:15.658Z,3.58
2018-09-12T15:33:43.972Z,5.85
2018-09-12T15:36:12.244Z,5.17
2018-09-12T15:38:40.528Z,3.25
2018-09-12T15:41:08.828Z,5.55
2018-09-12T15:43:37.120Z,4.62
2018-09-12T15:46:05.444Z,3.37
2018-09-12T15:48:34.047Z,4.85
2018-09-12T15:51:02.349Z,7.60
2018-09-12T15:53:30.656Z,3.60
2018-09-12T15:55:58.985Z,4.90
2018-09-12T15:58:27.293Z,11.05
2018-09-12T16:00:55.828Z,5.83
2018-09-12T16:03:24.148Z,4.97
2018-09-12T16:05:52.433Z,5.05
2018-09-12T16:08:20.709Z,6.05
2018-09-12T16:10:49.021Z,6.78
2018-09-12T16:13:17.301Z,2.85
2018-09-12T16:15:45.593Z,4.85
2018-09-12T16:18:13.920Z,11.90
2018-09-12T16:20:42.212Z,7.75
2018-09-12T16:23:10.553Z,4.55
2018-09-12T16:25:38.825Z,6.28
2018-09-12T16:28:07.097Z,6.83
2018-09-12T16:30:35.381Z,7.20
2018-09-12T16:33:03.720Z,5.05
2018-09-12T16:35:32.072Z,5.03
2018-09-12T16:38:00.435Z,5.50
2018-09-12T16:40:28.739Z,6.58
2018-09-12T16:42:57.017Z,5.97
2018-09-12T16:45:25.380Z,5.85
2018-09-12T16:47:53.688Z,5.53
2018-09-12T16:50:21.985Z,5.17
2018-09-12T16:52:50.322Z,5.45
2018-09-12T16:55:18.642Z,3.37
2018-09-12T16:57:46.924Z,3.08
2018-09-12T17:00:15.208Z,5.85
2018-09-12T17:02:43.516Z,4.67
2018-09-12T17:05:11.804Z,7.03
2018-09-12T17:07:40.161Z,4.62
2018-09-12T17:10:08.505Z,4.62
2018-09-12T17:12:36.780Z,4.05
2018-09-12T17:15:05.087Z,3.80
2018-09-12T17:17:33.420Z,5.10
2018-09-12T17:20:01.741Z,5.22
2018-09-12T17:22:30.026Z,5.25
2018-09-12T17:24:58.332Z,20.57
2018-09-12T17:27:26.645Z,15.08
2018-09-12T17:29:54.922Z,7.50
2018-09-12T17:32:23.282Z,9.98
2018-09-12T17:34:51.536Z,6.05
2018-09-12T17:37:19.821Z,33.90
2018-09-12T17:39:48.136Z,31.77
2018-09-12T17:42:16.438Z,19.40
2018-09-12T17:44:44.714Z,5.10
2018-09-12T17:47:13.005Z,8.55
2018-09-12T17:49:41.285Z,4.20
2018-09-12T17:52:09.577Z,6.28
2018-09-12T17:54:37.897Z,8.05
2018-09-12T17:57:06.219Z,5.12
2018-09-12T17:59:34.524Z,4.87
2018-09-12T18:02:02.842Z,5.53
2018-09-12T18:04:31.161Z,7.33
2018-09-12T18:06:59.432Z,4.58
2018-09-12T18:09:27.735Z,7.55
2018-09-12T18:11:56.021Z,9.30
2018-09-12T18:14:24.327Z,5.15
2018-09-12T18:16:52.676Z,5.33
2018-09-12T18:19:20.957Z,6.83
2018-09-12T18:21:49.236Z,15.45
2018-09-12T18:24:17.598Z,12.30
2018-09-12T18:26:45.841Z,13.95
2018-09-12T18:29:14.256Z,12.65
2018-09-12T18:31:42.557Z,5.62
2018-09-12T18:34:10.832Z,6.80
2018-09-12T18:36:39.116Z,9.63
2018-09-12T18:39:08.373Z,6.50
2018-09-12T18:41:36.688Z,5.27
2018-09-12T18:44:05.009Z,5.90
2018-09-12T18:46:33.322Z,7.20
2018-09-12T18:49:07.944Z,5.13
2018-09-12T18:51:36.245Z,11.03
2018-09-12T18:54:04.698Z,6.87
2018-09-12T18:56:32.960Z,10.57
2018-09-12T18:59:01.280Z,9.93
2018-09-12T19:01:29.587Z,17.97
2018-09-12T19:03:57.872Z,12.20
2018-09-12T19:06:26.185Z,14.80
2018-09-12T19:08:54.509Z,12.23
2018-09-12T19:11:22.828Z,12.47
2018-09-12T19:13:51.144Z,10.30
2018-09-12T19:16:19.430Z,12.57
2018-09-12T19:18:47.842Z,8.73
2018-09-12T19:21:16.136Z,8.73
2018-09-12T19:23:44.420Z,10.17
2018-09-12T19:26:12.700Z,11.83
2018-09-12T19:28:40.988Z,9.27
2018-09-12T19:31:09.285Z,14.33
2018-09-12T19:33:37.576Z,12.73
2018-09-12T19:36:05.892Z,10.77
2018-09-12T19:38:34.196Z,13.07
2018-09-12T19:41:02.464Z,7.67
2018-09-12T19:43:30.800Z,11.40
2018-09-12T19:45:59.080Z,8.03
2018-09-12T19:48:27.365Z,8.57
2018-09-12T19:50:55.685Z,11.67
2018-09-12T19:53:23.973Z,10.73
2018-09-12T19:55:52.256Z,8.23
2018-09-12T19:58:20.573Z,7.93
2018-09-12T20:00:48.910Z,17.63
2018-09-12T20:03:17.228Z,11.67
2018-09-12T20:05:45.590Z,9.83
2018-09-12T20:08:13.872Z,8.03
2018-09-12T20:10:42.161Z,9.53
2018-09-12T20:13:10.481Z,11.17
2018-09-12T20:15:38.768Z,11.13
2018-09-12T20:18:07.081Z,6.63
2018-09-12T20:20:35.458Z,6.10
2018-09-12T20:23:03.741Z,10.13
2018-09-12T20:25:32.173Z,15.53
2018-09-12T20:28:00.496Z,15.43
2018-09-12T20:30:28.822Z,14.07
2018-09-12T20:32:57.132Z,18.13
2018-09-12T20:35:25.449Z,11.23
2018-09-12T20:37:53.780Z,10.77
2018-09-12T20:40:22.142Z,11.97
2018-09-12T20:42:50.538Z,17.50
2018-09-12T20:45:33.635Z,13.23
2018-09-12T20:48:01.961Z,13.03
2018-09-12T20:50:30.493Z,11.63
2018-09-12T20:52:58.769Z,9.60
2018-09-12T20:55:27.187Z,12.13
2018-09-12T20:57:55.545Z,7.30
2018-09-12T21:00:23.939Z,9.17
2018-09-12T21:02:52.242Z,10.63
2018-09-12T21:05:20.573Z,12.23
2018-09-12T21:07:48.851Z,9.80
2018-09-12T21:10:17.184Z,9.27
2018-09-12T21:12:45.472Z,11.40
2018-09-12T21:15:13.749Z,14.97
2018-09-12T21:17:42.236Z,12.73
2018-09-12T21:20:10.624Z,11.17
2018-09-12T21:22:39.084Z,11.97
2018-09-12T21:25:07.397Z,19.13
2018-09-12T21:27:35.720Z,11.77
2018-09-12T21:30:04.180Z,14.00
2018-09-12T21:32:32.888Z,12.93
2018-09-12T21:35:01.197Z,12.63
2018-09-12T21:37:29.478Z,15.50
2018-09-12T21:39:57.873Z,12.20
2018-09-12T21:42:26.158Z,15.60
2018-09-12T21:44:54.509Z,13.30
2018-09-12T21:47:22.840Z,14.73
2018-09-12T21:49:51.112Z,11.30
2018-09-12T21:52:19.392Z,11.90
2018-09-12T21:54:47.700Z,10.57
2018-09-12T21:57:15.985Z,12.87
2018-09-12T21:59:44.252Z,10.00
2018-09-12T22:02:12.553Z,13.60
2018-09-12T22:04:41.392Z,12.53
2018-09-12T22:07:09.724Z,11.73
2018-09-12T22:09:38.212Z,11.83
2018-09-12T22:12:06.500Z,15.47
2018-09-12T22:14:34.941Z,14.60
2018-09-12T22:17:03.277Z,13.07
2018-09-12T22:19:31.718Z,16.43
2018-09-12T22:22:00.236Z,13.03
2018-09-12T22:24:28.592Z,12.87
2018-09-12T22:26:56.868Z,15.70
2018-09-12T22:29:25.148Z,16.03
2018-09-12T22:31:53.444Z,14.90
2018-09-12T22:34:21.748Z,18.13
2018-09-12T22:36:50.029Z,17.10
2018-09-12T22:39:18.601Z,13.53
2018-09-12T22:41:46.886Z,15.63
2018-09-12T22:44:15.168Z,14.30
2018-09-12T22:46:44.285Z,14.30
2018-09-12T22:49:12.569Z,13.97
2018-09-12T22:51:41.000Z,15.20
2018-09-12T22:54:09.296Z,15.33
2018-09-12T22:56:37.701Z,14.07
2018-09-12T22:59:06.036Z,15.30
2018-09-12T23:01:36.246Z,16.00
2018-09-12T23:04:04.596Z,14.53
2018-09-12T23:06:33.054Z,15.27
2018-09-12T23:09:01.357Z,15.43
2018-09-12T23:11:36.518Z,12.47
2018-09-12T23:14:04.877Z,13.47
2018-09-12T23:16:33.326Z,17.20
2018-09-12T23:19:01.688Z,13.87
2018-09-12T23:21:29.992Z,13.23
2018-09-12T23:23:58.277Z,22.17
2018-09-12T23:26:26.613Z,19.10
2018-09-12T23:28:55.037Z,18.13
2018-09-12T23:31:23.317Z,16.70
2018-09-12T23:33:51.600Z,16.03
2018-09-12T23:36:19.937Z,13.27
2018-09-12T23:38:48.228Z,13.50
2018-09-12T23:41:16.505Z,17.47
2018-09-12T23:43:44.830Z,14.40
2018-09-12T23:46:13.139Z,13.57
2018-09-12T23:48:42.128Z,12.40
2018-09-12T23:51:10.431Z,12.07
2018-09-12T23:53:38.778Z,13.50
2018-09-12T23:56:07.057Z,11.63
2018-09-12T23:58:35.808Z,12.30
